»·PEaware :: N2102W KSNA-KBUR

N2102W :: KSNA-KBUR

FLIGHT INFORMATION

Flight Status: Arrived
Operator: Privately registered:
United States
More flights under this callsign
Pilot: Eric G. (5941)
Aircraft: Cessna 525C Citation CJ4
(C25C)
More flights by this aircraft type
Origin: KSNA John Wayne-Orange Co
United States
Destination: KBUR Bob Hope-Burbank
United States
More flights between these airports :: More routes between these airports
Route: +SLI V23 LAX LAX316 SILEX
File this flight plan on PilotEdge
Remarks: NA
Altitude:
(Current/Filed)
7,000ft
Speed:
(Current/Filed)
250kts
Departed: 12-Sep-20 08:23 AM
Arrived: 12-Sep-20 08:45 AM
Distance/Time
Traveled:
40nm/0:22
Distance/Time
To Go:
Arrived

Flight Plot

Page will automatically refresh every two minutes.


Map Options




Map Legend


Flown Route
Filed Route
Departure Airport
Arrival Airport
Navaid (VOR, NDB)
Fix

Horizontal Profiles

Position Reports

Time Latitude Longitude Heading Altitude Ground
Speed
12-Sep-20 07:53 33.675901 -117.870858 26 51ft 0kts
12-Sep-20 07:54 33.675901 -117.870858 26 51ft 0kts
12-Sep-20 07:55 33.675901 -117.870858 26 51ft 0kts
12-Sep-20 07:56 33.675901 -117.870858 26 51ft 0kts
12-Sep-20 07:57 33.675901 -117.870858 26 51ft 0kts
12-Sep-20 07:58 33.675901 -117.870858 26 51ft 0kts
12-Sep-20 07:59 33.675901 -117.870858 26 51ft 0kts
12-Sep-20 08:00 33.675901 -117.870858 26 51ft 0kts
12-Sep-20 08:01 33.675901 -117.870858 26 51ft 0kts
12-Sep-20 08:02 33.675901 -117.870858 26 51ft 0kts
12-Sep-20 08:03 33.675901 -117.870858 26 51ft 0kts
12-Sep-20 08:04 33.675901 -117.870858 26 51ft 0kts
12-Sep-20 08:05 33.675901 -117.870858 26 51ft 0kts
12-Sep-20 08:06 33.675901 -117.870858 26 51ft 0kts
12-Sep-20 08:07 33.675901 -117.870858 26 51ft 0kts
12-Sep-20 08:08 33.675901 -117.870858 26 51ft 0kts
12-Sep-20 08:09 33.675901 -117.870858 26 51ft 0kts
12-Sep-20 08:10 33.675901 -117.870858 26 51ft 0kts
12-Sep-20 08:11 33.675901 -117.870858 26 51ft 0kts
12-Sep-20 08:12 33.675901 -117.870858 26 51ft 0kts
12-Sep-20 08:13 33.675901 -117.870858 26 51ft 0kts
12-Sep-20 08:14 33.675901 -117.870858 26 51ft 0kts
12-Sep-20 08:15 33.675901 -117.870858 26 51ft 0kts
12-Sep-20 08:16 33.678939 -117.868316 26 48ft 19kts
12-Sep-20 08:17 33.681940 -117.866115 95 41ft 0kts
12-Sep-20 08:18 33.681940 -117.866115 95 41ft 0kts
12-Sep-20 08:19 33.681940 -117.866115 95 41ft 0kts
12-Sep-20 08:20 33.681940 -117.866115 95 41ft 0kts
12-Sep-20 08:21 33.681824 -117.865556 115 40ft 13kts
12-Sep-20 08:22 33.665788 -117.875555 210 420ft 200kts
12-Sep-20 08:23 33.614560 -117.896925 186 2557ft 200kts
12-Sep-20 08:24 33.562911 -117.908412 233 4090ft 191kts
12-Sep-20 08:25 33.550967 -117.982546 263 4973ft 268kts
12-Sep-20 08:26 33.542754 -118.071590 263 4985ft 264kts
12-Sep-20 08:27 33.534580 -118.157716 263 4986ft 260kts
12-Sep-20 08:28 33.564532 -118.224361 334 5919ft 285kts
12-Sep-20 08:29 33.641674 -118.261555 333 5982ft 294kts
12-Sep-20 08:30 33.711176 -118.304222 331 5985ft 281kts
12-Sep-20 08:31 33.778442 -118.346406 331 5983ft 277kts
12-Sep-20 08:32 33.844825 -118.388118 331 5986ft 275kts
12-Sep-20 08:33 33.908738 -118.428307 331 5987ft 275kts
12-Sep-20 08:34 33.974269 -118.469520 331 5986ft 273kts
12-Sep-20 08:35 34.027957 -118.506546 323 5562ft 258kts
12-Sep-20 08:36 34.082437 -118.555818 322 4991ft 233kts
12-Sep-20 08:37 34.131113 -118.599887 322 3950ft 213kts
12-Sep-20 08:38 34.158309 -118.624306 322 3968ft 198kts
12-Sep-20 08:39 34.202005 -118.632233 72 3754ft 206kts
12-Sep-20 08:40 34.196757 -118.572327 88 3272ft 199kts
12-Sep-20 08:41 34.199749 -118.509166 90 3277ft 197kts
12-Sep-20 08:42 34.198145 -118.441764 88 2117ft 179kts
12-Sep-20 08:43 34.198185 -118.394562 91 1187ft 115kts
12-Sep-20 08:44 34.197789 -118.360095 90 715ft 33kts
12-Sep-20 08:45 34.198444 -118.357957 0 713ft 0kts
12-Sep-20 08:46 34.199643 -118.358565 300 717ft 14kts
12-Sep-20 08:47 0.000408 0.013975 0 2ft 0kts
12-Sep-20 08:48 0.000408 0.013975 0 2ft 0kts
12-Sep-20 08:49 34.199478 -118.359439 177 722ft 0kts
12-Sep-20 08:50 34.199478 -118.359439 177 716ft 0kts
12-Sep-20 08:51 34.199478 -118.359439 177 716ft 0kts
12-Sep-20 08:52 34.199478 -118.359439 177 716ft 0kts
12-Sep-20 08:53 34.199478 -118.359439 177 716ft 0kts

Navigation Log

Ident Type
Flight plan parsing failed, navigation log unavailable